createdAt,value
2022-11-19T00:01:17.951Z,99549.03
2022-11-19T00:03:49.875Z,99553.09
2022-11-19T00:06:22.654Z,99562.97
2022-11-19T00:08:49.807Z,99535.84
2022-11-19T00:11:38.057Z,99565.19
2022-11-19T00:14:05.057Z,99560.06
2022-11-19T00:16:31.652Z,99559.50
2022-11-19T00:18:58.262Z,99556.34
2022-11-19T00:21:24.803Z,99565.97
2022-11-19T00:23:55.001Z,99551.47
2022-11-19T00:26:22.577Z,99561.09
2022-11-19T00:28:49.234Z,99560.38
2022-11-19T00:31:17.138Z,99574.19
2022-11-19T00:33:45.505Z,99573.38
2022-11-19T00:36:14.790Z,99538.06
2022-11-19T00:38:41.811Z,99571.38
2022-11-19T00:41:08.668Z,99544.88
2022-11-19T00:43:47.693Z,99578.47
2022-11-19T00:46:15.367Z,99573.28
2022-11-19T00:48:42.318Z,99584.66
2022-11-19T00:51:09.472Z,99581.31
2022-11-19T00:53:36.749Z,99558.00
2022-11-19T00:56:05.417Z,99553.06
2022-11-19T00:58:31.911Z,99546.16
2022-11-19T01:00:58.475Z,99579.44
2022-11-19T01:03:25.432Z,99576.72
2022-11-19T01:05:52.203Z,99583.63
2022-11-19T01:08:19.533Z,99577.41
2022-11-19T01:10:46.164Z,99577.63
2022-11-19T01:13:31.464Z,99583.75
2022-11-19T01:15:58.128Z,99589.06
2022-11-19T01:18:24.815Z,99601.44
2022-11-19T01:20:51.305Z,99588.97
2022-11-19T01:23:18.635Z,99592.25
2022-11-19T01:25:45.392Z,99596.09
2022-11-19T01:28:12.245Z,99603.34
2022-11-19T01:30:43.372Z,99578.06
2022-11-19T01:33:10.508Z,99605.53
2022-11-19T01:35:37.680Z,99612.31
2022-11-19T01:38:05.058Z,99613.91
2022-11-19T01:40:32.247Z,99607.06
2022-11-19T01:42:58.905Z,99606.53
2022-11-19T01:45:31.073Z,99614.34
2022-11-19T01:48:02.583Z,99615.34
2022-11-19T01:50:32.907Z,99580.66
2022-11-19T01:53:00.611Z,99615.50
2022-11-19T01:55:28.130Z,99599.53
2022-11-19T01:57:58.753Z,99624.78
2022-11-19T02:00:25.152Z,99620.47
2022-11-19T02:02:52.089Z,99600.84
2022-11-19T02:05:19.164Z,99620.59
2022-11-19T02:07:55.822Z,99617.56
2022-11-19T02:10:35.579Z,99629.66
2022-11-19T02:13:22.301Z,99622.78
2022-11-19T02:16:26.277Z,99627.38
2022-11-19T02:19:00.428Z,99629.94
2022-11-19T02:21:45.635Z,99624.59
2022-11-19T02:24:30.267Z,99589.22
2022-11-19T02:27:15.120Z,99615.88
2022-11-19T02:30:08.461Z,99622.09
2022-11-19T02:32:44.349Z,99616.13
2022-11-19T02:35:16.401Z,99625.66
2022-11-19T02:38:12.407Z,99622.22
2022-11-19T02:40:48.734Z,99603.47
2022-11-19T02:43:34.925Z,99624.88
2022-11-19T02:46:14.905Z,99629.53
2022-11-19T02:48:50.193Z,99633.00
2022-11-19T02:51:18.548Z,99633.03
2022-11-19T02:53:48.160Z,99624.47
2022-11-19T02:56:35.338Z,99636.63
2022-11-19T02:59:22.099Z,99643.75
2022-11-19T03:02:08.573Z,99634.91
2022-11-19T03:04:35.419Z,99648.19
2022-11-19T03:07:08.668Z,99650.72
2022-11-19T03:09:40.587Z,99613.72
2022-11-19T03:12:41.222Z,99654.94
2022-11-19T03:15:29.663Z,99658.38
2022-11-19T03:18:28.155Z,99629.19
2022-11-19T03:21:03.769Z,99666.31
2022-11-19T03:24:03.101Z,99652.41
2022-11-19T03:26:41.510Z,99667.13
2022-11-19T03:29:12.444Z,99640.63
2022-11-19T03:31:43.010Z,99657.78
2022-11-19T03:34:15.636Z,99648.53
2022-11-19T03:36:44.352Z,99674.19
2022-11-19T03:39:15.073Z,99675.41
2022-11-19T03:41:42.354Z,99677.03
2022-11-19T03:44:24.286Z,99671.88
2022-11-19T03:46:56.049Z,99659.91
2022-11-19T03:49:28.659Z,99683.19
2022-11-19T03:52:11.754Z,99684.03
2022-11-19T03:54:39.746Z,99685.00
2022-11-19T03:57:08.491Z,99679.94
2022-11-19T03:59:35.112Z,99685.25
2022-11-19T04:02:08.244Z,99692.34
2022-11-19T04:04:37.834Z,99695.19
2022-11-19T04:07:09.236Z,99692.72
2022-11-19T04:09:36.001Z,99648.88
2022-11-19T04:12:03.291Z,99690.09
2022-11-19T04:14:29.873Z,99677.31
2022-11-19T04:16:56.487Z,99649.00
2022-11-19T04:19:23.142Z,99697.84
2022-11-19T04:21:49.782Z,99703.91
2022-11-19T04:24:16.804Z,99705.84
2022-11-19T04:26:43.392Z,99704.31
2022-11-19T04:29:09.993Z,99702.53
2022-11-19T04:31:36.790Z,99704.13
2022-11-19T04:34:03.317Z,99718.03
2022-11-19T04:36:30.017Z,99708.50
2022-11-19T04:38:56.542Z,99710.03
2022-11-19T04:41:23.324Z,99702.06
2022-11-19T04:43:49.876Z,99700.50
2022-11-19T04:46:16.542Z,99689.50
2022-11-19T04:48:43.079Z,99709.34
2022-11-19T04:51:09.665Z,99696.53
2022-11-19T04:53:36.330Z,99708.66
2022-11-19T04:56:02.887Z,99707.78
2022-11-19T04:58:29.504Z,99696.53
2022-11-19T05:00:56.074Z,99669.09
2022-11-19T05:03:22.811Z,99700.66
2022-11-19T05:05:49.914Z,99708.56
2022-11-19T05:08:16.446Z,99659.72
2022-11-19T05:10:44.717Z,99729.34
2022-11-19T05:13:11.380Z,99733.69
2022-11-19T05:15:37.874Z,99718.13
2022-11-19T05:18:04.615Z,99736.31
2022-11-19T05:20:31.423Z,99724.31
2022-11-19T05:22:58.323Z,99718.34
2022-11-19T05:25:24.857Z,99709.94
2022-11-19T05:27:51.735Z,99736.56
2022-11-19T05:30:18.419Z,99728.84
2022-11-19T05:32:45.115Z,99713.75
2022-11-19T05:35:11.572Z,99744.91
2022-11-19T05:37:38.241Z,99703.69
2022-11-19T05:40:05.259Z,99731.94
2022-11-19T05:42:31.727Z,99744.19
2022-11-19T05:44:58.322Z,99743.41
2022-11-19T05:47:24.852Z,99745.22
2022-11-19T05:49:51.482Z,99759.06
2022-11-19T05:52:18.049Z,99755.78
2022-11-19T05:54:44.602Z,99725.63
2022-11-19T05:57:11.146Z,99715.47
2022-11-19T05:59:43.480Z,99760.34
2022-11-19T06:02:10.759Z,99753.53
2022-11-19T06:04:38.216Z,99756.06
2022-11-19T06:07:05.089Z,99763.78
2022-11-19T06:09:32.516Z,99726.81
2022-11-19T06:11:59.090Z,99727.81
2022-11-19T06:14:27.391Z,99762.22
2022-11-19T06:16:59.312Z,99750.41
2022-11-19T06:19:26.538Z,99775.34
2022-11-19T06:21:53.678Z,99737.50
2022-11-19T06:24:20.846Z,99778.09
2022-11-19T06:26:47.431Z,99736.78
2022-11-19T06:29:15.736Z,99783.13
2022-11-19T06:31:42.318Z,99773.75
2022-11-19T06:34:09.429Z,99757.56
2022-11-19T06:36:41.794Z,99801.53
2022-11-19T06:39:10.463Z,99800.66
2022-11-19T06:41:37.223Z,99791.13
2022-11-19T06:44:04.088Z,99791.97
2022-11-19T06:46:30.697Z,99796.25
2022-11-19T06:48:57.383Z,99793.88
2022-11-19T06:51:24.737Z,99796.50
2022-11-19T06:53:51.326Z,99795.91
2022-11-19T06:56:17.802Z,99793.41
2022-11-19T06:58:44.297Z,99794.34
2022-11-19T07:01:10.866Z,99799.53
2022-11-19T07:03:37.369Z,99810.91
2022-11-19T07:06:04.935Z,99773.13
2022-11-19T07:08:34.884Z,99804.00
2022-11-19T07:11:22.389Z,99770.44
2022-11-19T07:13:58.463Z,99801.31
2022-11-19T07:16:30.640Z,99820.25
2022-11-19T07:18:59.405Z,99794.41
2022-11-19T07:21:26.851Z,99826.22
2022-11-19T07:23:54.369Z,99820.94
2022-11-19T07:26:21.046Z,99830.59
2022-11-19T07:28:47.564Z,99824.56
2022-11-19T07:31:14.199Z,99827.88
2022-11-19T07:33:41.096Z,99817.44
2022-11-19T07:36:15.330Z,99780.63
2022-11-19T07:38:44.645Z,99826.25
2022-11-19T07:41:29.720Z,99841.13
2022-11-19T07:43:56.323Z,99844.63
2022-11-19T07:46:23.292Z,99849.97
2022-11-19T07:48:54.428Z,99847.47
2022-11-19T07:51:21.878Z,99848.31
2022-11-19T07:53:49.588Z,99842.22
2022-11-19T07:56:16.631Z,99851.81
2022-11-19T07:58:43.123Z,99812.13
2022-11-19T08:01:11.837Z,99841.28
2022-11-19T08:03:38.413Z,99841.28
2022-11-19T08:06:06.447Z,99852.50
2022-11-19T08:08:33.285Z,99855.09
2022-11-19T08:11:07.265Z,99819.84
2022-11-19T08:13:34.186Z,99859.41
2022-11-19T08:16:02.311Z,99867.19
2022-11-19T08:18:31.328Z,99852.41
2022-11-19T08:21:05.311Z,99851.50
2022-11-19T08:23:32.822Z,99860.09
2022-11-19T08:26:00.034Z,99861.88
2022-11-19T08:28:27.526Z,99874.94
2022-11-19T08:30:54.396Z,99829.28
2022-11-19T08:33:20.935Z,99833.59
2022-11-19T08:35:47.459Z,99858.53
2022-11-19T08:38:14.037Z,99882.72
2022-11-19T08:40:40.594Z,99878.22
2022-11-19T08:43:07.083Z,99881.75
2022-11-19T08:45:38.015Z,99882.59
2022-11-19T08:48:10.637Z,99888.72
2022-11-19T08:50:37.554Z,99893.00
2022-11-19T08:53:06.188Z,99895.59
2022-11-19T08:55:32.962Z,99895.56
2022-11-19T08:58:04.334Z,99904.31
2022-11-19T09:00:32.876Z,99857.75
2022-11-19T09:02:59.445Z,99905.22
2022-11-19T09:05:26.594Z,99903.41
2022-11-19T09:07:54.976Z,99893.16
2022-11-19T09:10:21.600Z,99906.94
2022-11-19T09:12:49.393Z,99886.28
2022-11-19T09:15:16.111Z,99901.75
2022-11-19T09:17:46.780Z,99891.41
2022-11-19T09:20:14.038Z,99913.03
2022-11-19T09:22:40.911Z,99909.63
2022-11-19T09:25:09.008Z,99914.91
2022-11-19T09:27:36.934Z,99917.50
2022-11-19T09:30:05.723Z,99921.69
2022-11-19T09:32:33.034Z,99923.44
2022-11-19T09:34:59.575Z,99931.09
2022-11-19T09:37:26.180Z,99923.22
2022-11-19T09:39:52.746Z,99927.63
2022-11-19T09:42:50.614Z,99937.16
2022-11-19T09:46:03.856Z,99927.59
2022-11-19T09:48:37.106Z,99934.53
2022-11-19T09:51:19.983Z,99938.19
2022-11-19T09:53:58.017Z,99926.91
2022-11-19T09:56:54.379Z,99938.06
2022-11-19T09:59:24.327Z,99940.69
2022-11-19T10:01:51.482Z,99941.47
2022-11-19T10:04:31.694Z,99937.78
2022-11-19T10:07:36.045Z,99937.78
2022-11-19T10:10:28.099Z,99939.03
2022-11-19T10:13:15.711Z,99933.91
2022-11-19T10:15:48.459Z,99927.88
2022-11-19T10:18:41.211Z,99935.63
2022-11-19T10:21:22.270Z,99923.59
2022-11-19T10:24:10.478Z,99944.41
2022-11-19T10:26:40.806Z,99938.38
2022-11-19T10:29:21.974Z,99942.81
2022-11-19T10:31:50.921Z,99948.78
2022-11-19T10:34:33.356Z,99944.25
2022-11-19T10:37:11.551Z,99941.66
2022-11-19T10:39:53.522Z,99946.09
2022-11-19T10:42:28.826Z,99940.97
2022-11-19T10:45:05.043Z,99946.94
2022-11-19T10:47:41.176Z,99944.19
2022-11-19T10:50:15.354Z,99949.34
2022-11-19T10:52:47.426Z,99941.44
2022-11-19T10:55:32.736Z,99951.00
2022-11-19T10:58:08.300Z,99906.06
2022-11-19T11:00:37.375Z,99940.53
2022-11-19T11:03:06.691Z,99942.28
2022-11-19T11:05:55.699Z,99905.09
2022-11-19T11:08:22.523Z,99942.06
2022-11-19T11:10:51.019Z,99933.41
2022-11-19T11:13:54.309Z,99935.34
2022-11-19T11:16:38.883Z,99946.72
2022-11-19T11:19:14.635Z,99949.38
2022-11-19T11:21:43.719Z,99944.19
2022-11-19T11:24:14.543Z,99928.50
2022-11-19T11:26:41.538Z,99938.91
2022-11-19T11:29:13.930Z,99946.63
2022-11-19T11:31:43.228Z,99915.69
2022-11-19T11:34:26.213Z,99949.03
2022-11-19T11:36:53.894Z,99926.50
2022-11-19T11:39:40.934Z,99942.81
2022-11-19T11:42:17.556Z,99933.25
2022-11-19T11:44:57.413Z,99947.00
2022-11-19T11:47:30.761Z,99929.56
2022-11-19T11:50:08.897Z,99945.19
2022-11-19T11:52:35.552Z,99934.66
2022-11-19T11:55:08.376Z,99933.03
2022-11-19T11:57:37.443Z,99928.75
2022-11-19T12:00:29.717Z,99933.13
2022-11-19T12:03:14.869Z,99919.25
2022-11-19T12:06:03.164Z,99939.28
2022-11-19T12:08:52.484Z,99932.31
2022-11-19T12:11:57.320Z,99935.75
2022-11-19T12:14:44.859Z,99906.66
2022-11-19T12:17:40.068Z,99930.81
2022-11-19T12:20:18.813Z,99933.50
2022-11-19T12:23:00.444Z,99929.94
2022-11-19T12:25:51.930Z,99923.75
2022-11-19T12:28:48.424Z,99928.06
2022-11-19T12:31:52.543Z,99929.75
2022-11-19T12:34:25.018Z,99938.44
2022-11-19T12:37:08.300Z,99937.56
2022-11-19T12:39:53.669Z,99896.97
2022-11-19T12:42:48.259Z,99936.44
2022-11-19T12:45:42.119Z,99937.97
2022-11-19T12:48:23.859Z,99944.91
2022-11-19T12:50:59.354Z,99939.59
2022-11-19T12:53:49.423Z,99935.28
2022-11-19T12:56:27.754Z,99943.03
2022-11-19T12:58:59.451Z,99931.56
2022-11-19T13:01:30.906Z,99942.88
2022-11-19T13:04:22.623Z,99949.94
2022-11-19T13:06:57.843Z,99948.34
2022-11-19T13:10:00.516Z,99945.78
2022-11-19T13:12:40.503Z,99925.94
2022-11-19T13:15:34.164Z,99950.03
2022-11-19T13:18:04.754Z,99949.22
2022-11-19T13:20:44.070Z,99899.25
2022-11-19T13:23:19.519Z,99936.94
2022-11-19T13:26:01.900Z,99932.41
2022-11-19T13:28:45.633Z,99929.75
2022-11-19T13:31:38.883Z,99932.69
2022-11-19T13:34:18.758Z,99932.78
2022-11-19T13:36:57.846Z,99928.44
2022-11-19T13:39:35.804Z,99933.59
2022-11-19T13:42:24.822Z,99920.56
2022-11-19T13:44:52.061Z,99927.41
2022-11-19T13:47:28.945Z,99937.84
2022-11-19T13:50:03.602Z,99931.84
2022-11-19T13:52:32.203Z,99938.81
2022-11-19T13:55:00.180Z,99944.84
2022-11-19T13:57:37.205Z,99944.75
2022-11-19T14:00:29.308Z,99943.03
2022-11-19T14:03:20.546Z,99920.84
2022-11-19T14:06:04.972Z,99952.78
2022-11-19T14:08:52.867Z,99947.56
2022-11-19T14:11:28.445Z,99944.06
2022-11-19T14:14:32.409Z,99947.53
2022-11-19T14:17:48.939Z,99948.41
2022-11-19T14:20:53.896Z,99948.38
2022-11-19T14:24:08.413Z,99951.06
2022-11-19T14:26:40.800Z,99960.78
2022-11-19T14:29:25.804Z,99951.41
2022-11-19T14:32:02.699Z,99959.03
2022-11-19T14:34:31.969Z,99932.38
2022-11-19T14:37:03.398Z,99967.69
2022-11-19T14:39:41.337Z,99934.13
2022-11-19T14:42:20.163Z,99961.53
2022-11-19T14:45:06.526Z,99969.31
2022-11-19T14:47:39.405Z,99948.66
2022-11-19T14:50:21.208Z,99964.91
2022-11-19T14:52:57.544Z,99954.44
2022-11-19T14:55:26.857Z,99969.16
2022-11-19T14:58:19.560Z,99973.56
2022-11-19T15:00:46.416Z,99965.78
2022-11-19T15:03:21.325Z,99969.28
2022-11-19T15:05:48.360Z,99969.22
2022-11-19T15:08:17.991Z,99975.28
2022-11-19T15:10:49.132Z,99970.19
2022-11-19T15:13:40.215Z,99971.19
2022-11-19T15:16:10.176Z,99967.69
2022-11-19T15:18:39.865Z,99975.47
2022-11-19T15:21:06.351Z,99978.00
2022-11-19T15:23:59.321Z,99952.19
2022-11-19T15:26:50.461Z,99956.56
2022-11-19T15:29:36.066Z,99957.56
2022-11-19T15:32:41.001Z,99966.19
2022-11-19T15:35:32.039Z,99974.69
2022-11-19T15:38:25.018Z,99974.00
2022-11-19T15:40:54.892Z,99975.78
2022-11-19T15:43:45.613Z,99984.56
2022-11-19T15:46:18.565Z,99988.09
2022-11-19T15:49:00.188Z,99953.69
2022-11-19T15:51:26.812Z,99995.97
2022-11-19T15:54:01.694Z,99990.88
2022-11-19T15:56:32.700Z,99993.25
2022-11-19T15:59:01.425Z,99986.19
2022-11-19T16:01:29.338Z,99988.97
2022-11-19T16:04:11.092Z,99996.91
2022-11-19T16:06:44.995Z,99998.69
2022-11-19T16:09:26.057Z,99997.00
2022-11-19T16:12:16.870Z,99988.34
2022-11-19T16:15:11.403Z,100000.56
2022-11-19T16:17:49.912Z,100003.16
2022-11-19T16:20:20.602Z,100023.03
2022-11-19T16:22:49.785Z,100023.94
2022-11-19T16:25:44.199Z,100020.56
2022-11-19T16:28:14.150Z,100013.63
2022-11-19T16:30:46.591Z,100010.06
2022-11-19T16:33:17.107Z,100005.66
2022-11-19T16:35:48.329Z,99970.22
2022-11-19T16:38:25.740Z,100010.97
2022-11-19T16:41:23.007Z,100011.06
2022-11-19T16:43:50.230Z,100015.56
2022-11-19T16:46:21.684Z,100012.19
2022-11-19T16:48:48.235Z,99983.72
2022-11-19T16:51:26.764Z,100011.31
2022-11-19T16:53:53.477Z,100004.22
2022-11-19T16:56:20.056Z,99993.75
2022-11-19T16:58:46.991Z,99968.75
2022-11-19T17:01:17.933Z,99984.34
2022-11-19T17:03:45.233Z,99979.41
2022-11-19T17:06:26.295Z,100008.75
2022-11-19T17:08:58.416Z,100016.53
2022-11-19T17:12:06.774Z,100026.91
2022-11-19T17:14:36.129Z,100019.91
2022-11-19T17:17:03.711Z,100024.38
2022-11-19T17:19:35.486Z,99989.94
2022-11-19T17:22:14.271Z,100011.44
2022-11-19T17:24:43.349Z,99976.19
2022-11-19T17:27:21.846Z,100014.09
2022-11-19T17:29:48.682Z,100010.72
2022-11-19T17:32:15.426Z,100015.94
2022-11-19T17:34:49.237Z,100019.31
2022-11-19T17:37:15.788Z,100017.56
2022-11-19T17:39:42.379Z,100011.56
2022-11-19T17:42:28.098Z,100007.28
2022-11-19T17:44:54.716Z,100014.19
2022-11-19T17:47:23.756Z,100023.59
2022-11-19T17:49:51.863Z,100019.25
2022-11-19T17:52:31.528Z,100033.16
2022-11-19T17:55:11.144Z,100041.13
2022-11-19T17:57:42.372Z,100029.00
2022-11-19T18:00:11.629Z,100044.47
2022-11-19T18:02:39.212Z,100047.97
2022-11-19T18:05:15.729Z,100047.09
2022-11-19T18:07:42.328Z,100044.53
2022-11-19T18:10:09.460Z,100047.94
2022-11-19T18:12:36.028Z,100033.19
2022-11-19T18:15:02.641Z,100036.63
2022-11-19T18:17:29.214Z,100034.91
2022-11-19T18:19:55.824Z,100017.72
2022-11-19T18:22:22.504Z,100031.44
2022-11-19T18:24:50.477Z,100041.88
2022-11-19T18:27:17.711Z,100040.38
2022-11-19T18:29:44.410Z,100044.88
2022-11-19T18:32:12.253Z,100056.94
2022-11-19T18:34:38.776Z,100062.97
2022-11-19T18:37:05.364Z,100053.47
2022-11-19T18:39:31.874Z,100056.91
2022-11-19T18:41:58.407Z,100053.47
2022-11-19T18:44:34.150Z,100060.41
2022-11-19T18:47:01.492Z,100062.97
2022-11-19T18:49:28.247Z,100060.38
2022-11-19T18:51:55.405Z,100058.69
2022-11-19T18:54:22.343Z,100055.16
2022-11-19T18:56:48.887Z,100048.38
2022-11-19T18:59:15.528Z,100049.31
2022-11-19T19:01:42.213Z,100067.41
2022-11-19T19:04:13.942Z,100065.78
2022-11-19T19:06:41.649Z,100059.72
2022-11-19T19:09:08.245Z,100072.63
2022-11-19T19:11:52.976Z,100067.41
2022-11-19T19:14:19.810Z,100064.00
2022-11-19T19:16:46.652Z,100069.28
2022-11-19T19:19:17.343Z,100072.75
2022-11-19T19:21:43.775Z,100080.53
2022-11-19T19:24:10.382Z,100078.84
2022-11-19T19:26:38.164Z,100079.69
2022-11-19T19:29:06.002Z,100084.00
2022-11-19T19:31:33.026Z,100075.34
2022-11-19T19:34:01.121Z,100079.72
2022-11-19T19:36:28.038Z,100046.97
2022-11-19T19:38:54.865Z,100072.84
2022-11-19T19:41:23.554Z,100080.63
2022-11-19T19:43:50.510Z,100069.31
2022-11-19T19:46:20.105Z,100061.72
2022-11-19T19:48:48.970Z,100092.88
2022-11-19T19:51:16.711Z,100103.22
2022-11-19T19:53:43.859Z,100102.34
2022-11-19T19:56:13.661Z,100105.78
2022-11-19T19:58:43.721Z,100104.78
2022-11-19T20:01:31.494Z,100105.69
2022-11-19T20:04:09.157Z,100107.44
2022-11-19T20:06:37.856Z,100096.25
2022-11-19T20:09:08.802Z,100078.25
2022-11-19T20:11:48.535Z,100075.63
2022-11-19T20:14:15.451Z,100080.72
2022-11-19T20:16:42.153Z,100071.25
2022-11-19T20:19:13.459Z,100052.47
2022-11-19T20:21:40.401Z,100100.13
2022-11-19T20:24:12.145Z,100099.28
2022-11-19T20:26:40.964Z,100069.09
2022-11-19T20:29:09.215Z,100092.22
2022-11-19T20:31:35.922Z,100079.28
2022-11-19T20:34:05.158Z,100077.59
2022-11-19T20:36:34.394Z,100074.19
2022-11-19T20:39:01.589Z,100089.91
2022-11-19T20:41:47.585Z,100100.28
2022-11-19T20:44:22.324Z,100103.81
2022-11-19T20:47:00.628Z,100081.44
2022-11-19T20:49:29.406Z,100096.88
2022-11-19T20:51:56.862Z,100095.91
2022-11-19T20:54:24.680Z,100100.19
2022-11-19T20:56:53.063Z,100094.13
2022-11-19T20:59:20.639Z,100074.22
2022-11-19T21:01:51.569Z,100065.59
2022-11-19T21:04:18.553Z,100095.72
2022-11-19T21:06:45.552Z,100089.84
2022-11-19T21:09:12.565Z,100109.72
2022-11-19T21:11:39.174Z,100107.13
2022-11-19T21:14:07.431Z,100074.34
2022-11-19T21:16:34.008Z,100107.91
2022-11-19T21:19:00.747Z,100115.78
2022-11-19T21:21:27.665Z,100089.00
2022-11-19T21:23:54.553Z,100076.81
2022-11-19T21:26:23.353Z,100091.34
2022-11-19T21:28:53.222Z,100101.66
2022-11-19T21:31:23.393Z,100104.28
2022-11-19T21:33:49.921Z,100100.94
2022-11-19T21:36:16.575Z,100103.50
2022-11-19T21:38:43.255Z,100099.13
2022-11-19T21:41:09.880Z,100067.13
2022-11-19T21:43:37.132Z,100098.22
2022-11-19T21:46:07.317Z,100092.16
2022-11-19T21:48:33.961Z,100081.78
2022-11-19T21:51:05.944Z,100064.59
2022-11-19T21:53:32.505Z,100084.38
2022-11-19T21:55:59.091Z,100084.38
2022-11-19T21:58:25.627Z,100086.91
2022-11-19T22:00:57.605Z,100079.13
2022-11-19T22:03:24.155Z,100080.91
2022-11-19T22:06:11.293Z,100080.94
2022-11-19T22:08:39.893Z,100079.25
2022-11-19T22:11:26.616Z,100071.47
2022-11-19T22:13:55.463Z,100084.50
2022-11-19T22:16:22.638Z,100093.09
2022-11-19T22:18:49.243Z,100067.19
2022-11-19T22:21:16.156Z,100057.63
2022-11-19T22:23:42.740Z,100086.00
2022-11-19T22:26:11.803Z,100090.34
2022-11-19T22:28:38.378Z,100097.28
2022-11-19T22:31:05.807Z,100088.63
2022-11-19T22:33:35.153Z,100090.41
2022-11-19T22:36:09.238Z,100085.22
2022-11-19T22:38:36.385Z,100082.59
2022-11-19T22:41:08.772Z,100080.88
2022-11-19T22:43:36.502Z,100084.38
2022-11-19T22:46:03.842Z,100064.41
2022-11-19T22:48:32.150Z,100067.81
2022-11-19T22:50:59.172Z,100078.06
2022-11-19T22:53:25.840Z,100076.31
2022-11-19T22:55:52.578Z,100060.81
2022-11-19T22:58:19.112Z,100073.00
2022-11-19T23:00:48.582Z,100063.47
2022-11-19T23:03:15.538Z,100064.34
2022-11-19T23:05:46.700Z,100055.69
2022-11-19T23:08:13.316Z,100055.69
2022-11-19T23:10:39.901Z,100065.22
2022-11-19T23:13:24.966Z,100049.56
2022-11-19T23:16:12.167Z,100066.03
2022-11-19T23:18:41.895Z,100066.94
2022-11-19T23:21:13.802Z,100066.88
2022-11-19T23:23:40.885Z,100056.47
2022-11-19T23:26:09.350Z,100035.03
2022-11-19T23:28:37.341Z,100057.41
2022-11-19T23:31:15.765Z,100058.09
2022-11-19T23:33:42.866Z,100054.59
2022-11-19T23:36:15.458Z,100047.53
2022-11-19T23:38:42.520Z,100038.00
2022-11-19T23:41:11.408Z,100045.78
2022-11-19T23:43:41.839Z,100039.75
2022-11-19T23:46:21.721Z,100026.09
2022-11-19T23:48:49.437Z,100042.50
2022-11-19T23:51:20.133Z,100046.81
2022-11-19T23:53:47.006Z,100042.50
2022-11-19T23:56:15.442Z,100026.03
2022-11-19T23:58:42.753Z,100038.06
